createdAt,value
2024-01-06T00:03:56.342Z,21.00
2024-01-06T00:09:18.151Z,15.07
2024-01-06T00:14:40.016Z,15.32
2024-01-06T00:20:01.997Z,16.60
2024-01-06T00:25:23.780Z,12.57
2024-01-06T00:30:46.555Z,13.52
2024-01-06T00:36:08.645Z,14.23
2024-01-06T00:41:30.512Z,11.48
2024-01-06T00:46:52.234Z,12.18
2024-01-06T00:52:14.012Z,9.85
2024-01-06T00:57:35.820Z,11.05
2024-01-06T01:02:57.679Z,12.07
2024-01-06T01:08:19.517Z,10.23
2024-01-06T01:13:41.358Z,10.13
2024-01-06T01:19:03.330Z,11.65
2024-01-06T01:24:25.197Z,9.48
2024-01-06T01:29:47.053Z,11.20
2024-01-06T01:35:09.076Z,10.23
2024-01-06T01:40:30.828Z,10.60
2024-01-06T01:45:55.180Z,8.85
2024-01-06T01:51:18.444Z,9.15
2024-01-06T01:56:40.947Z,9.35
2024-01-06T02:02:03.448Z,9.10
2024-01-06T02:07:25.281Z,8.13
2024-01-06T02:12:47.092Z,10.80
2024-01-06T02:18:09.114Z,7.93
2024-01-06T02:23:31.220Z,7.25
2024-01-06T02:28:52.979Z,7.25
2024-01-06T02:34:14.975Z,8.02
2024-01-06T02:39:36.776Z,8.95
2024-01-06T02:44:58.545Z,11.65
2024-01-06T02:50:20.328Z,9.55
2024-01-06T02:55:42.081Z,8.77
2024-01-06T03:01:04.202Z,10.25
2024-01-06T03:06:26.319Z,11.40
2024-01-06T03:11:48.159Z,10.80
2024-01-06T03:17:09.982Z,11.02
2024-01-06T03:22:31.954Z,11.15
2024-01-06T03:27:53.775Z,12.82
2024-01-06T03:33:16.105Z,13.25
2024-01-06T03:38:37.929Z,9.05
2024-01-06T03:44:00.137Z,12.00
2024-01-06T03:49:22.113Z,12.35
2024-01-06T03:54:43.957Z,14.82
2024-01-06T04:00:06.391Z,11.77
2024-01-06T04:05:28.207Z,12.65
2024-01-06T04:10:50.005Z,15.07
2024-01-06T04:16:11.781Z,12.43
2024-01-06T04:21:33.549Z,12.77
2024-01-06T04:26:55.371Z,11.57
2024-01-06T04:32:17.138Z,12.30
2024-01-06T04:37:38.952Z,14.70
2024-01-06T04:43:00.786Z,12.10
2024-01-06T04:48:23.103Z,11.02
2024-01-06T04:53:44.861Z,12.45
2024-01-06T04:59:06.896Z,13.35
2024-01-06T05:04:28.710Z,10.52
2024-01-06T05:09:50.589Z,9.85
2024-01-06T05:15:13.213Z,14.00
2024-01-06T05:20:34.938Z,10.02
2024-01-06T05:25:56.713Z,10.43
2024-01-06T05:31:18.577Z,12.18
2024-01-06T05:36:40.483Z,11.65
2024-01-06T05:42:02.290Z,11.82
2024-01-06T05:47:24.045Z,11.30
2024-01-06T05:52:45.887Z,12.57
2024-01-06T05:58:07.645Z,9.75
2024-01-06T06:03:29.486Z,12.63
2024-01-06T06:08:51.301Z,12.18
2024-01-06T06:14:13.134Z,11.88
2024-01-06T06:19:35.000Z,12.45
2024-01-06T06:25:00.830Z,12.77
2024-01-06T06:30:22.684Z,18.70
2024-01-06T06:35:44.660Z,11.68
2024-01-06T06:41:06.489Z,12.65
2024-01-06T06:46:28.235Z,13.45
2024-01-06T06:51:50.156Z,11.15
2024-01-06T06:57:12.028Z,11.38
2024-01-06T07:02:34.568Z,10.88
2024-01-06T07:07:56.384Z,11.98
2024-01-06T07:13:18.152Z,14.55
2024-01-06T07:18:39.946Z,11.00
2024-01-06T07:24:01.760Z,13.15
2024-01-06T07:29:23.638Z,12.15
2024-01-06T07:34:45.458Z,11.55
2024-01-06T07:40:07.539Z,13.57
2024-01-06T07:45:29.333Z,13.88
2024-01-06T07:50:51.355Z,13.57
2024-01-06T07:56:13.258Z,12.15
2024-01-06T08:01:35.139Z,16.38
2024-01-06T08:06:57.060Z,14.27
2024-01-06T08:12:19.281Z,13.68
2024-01-06T08:17:41.127Z,13.90
2024-01-06T08:23:02.967Z,11.88
2024-01-06T08:28:24.695Z,12.32
2024-01-06T08:33:46.626Z,10.68
2024-01-06T08:39:08.503Z,12.95
2024-01-06T08:44:30.277Z,12.43
2024-01-06T08:49:52.145Z,11.60
2024-01-06T08:55:14.685Z,11.43
2024-01-06T09:00:37.532Z,11.32
2024-01-06T09:06:01.245Z,9.88
2024-01-06T09:11:22.977Z,11.68
2024-01-06T09:16:44.704Z,9.68
2024-01-06T09:22:06.480Z,11.27
2024-01-06T09:27:28.291Z,11.57
2024-01-06T09:32:50.125Z,9.32
2024-01-06T09:38:11.942Z,10.38
2024-01-06T09:43:33.786Z,9.80
2024-01-06T09:48:56.568Z,8.63
2024-01-06T09:54:24.497Z,9.45
2024-01-06T09:59:46.257Z,10.05
2024-01-06T10:05:08.714Z,10.75
2024-01-06T10:10:30.675Z,9.27
2024-01-06T10:15:52.599Z,8.85
2024-01-06T10:21:14.378Z,12.25
2024-01-06T10:26:36.494Z,8.05
2024-01-06T10:31:59.046Z,7.53
2024-01-06T10:37:24.714Z,8.02
2024-01-06T10:42:46.903Z,7.10
2024-01-06T10:48:09.252Z,10.00
2024-01-06T10:53:31.892Z,8.23
2024-01-06T10:58:54.898Z,7.43
2024-01-06T11:04:17.756Z,8.23
2024-01-06T11:09:46.027Z,9.77
2024-01-06T11:15:08.086Z,8.60
2024-01-06T11:20:29.830Z,6.95
2024-01-06T11:25:54.050Z,9.07
2024-01-06T11:31:15.994Z,10.23
2024-01-06T11:36:37.830Z,11.50
2024-01-06T11:41:59.618Z,8.50
2024-01-06T11:47:21.486Z,7.57
2024-01-06T11:52:43.403Z,8.77
2024-01-06T11:58:05.603Z,7.10
2024-01-06T12:03:27.645Z,8.32
2024-01-06T12:08:49.448Z,17.00
2024-01-06T12:14:11.192Z,7.95
2024-01-06T12:19:37.400Z,9.60
2024-01-06T12:25:04.040Z,8.85
2024-01-06T12:30:25.996Z,7.85
2024-01-06T12:35:48.019Z,9.18
2024-01-06T12:41:09.799Z,8.68
2024-01-06T12:46:31.654Z,7.18
2024-01-06T12:51:53.560Z,8.70
2024-01-06T12:57:15.492Z,8.57
2024-01-06T13:02:37.448Z,7.75
2024-01-06T13:07:59.161Z,6.07
2024-01-06T13:13:20.913Z,5.97
2024-01-06T13:18:42.810Z,7.22
2024-01-06T13:24:04.919Z,7.13
2024-01-06T13:29:26.619Z,6.88
2024-01-06T13:34:48.684Z,6.78
2024-01-06T13:40:11.787Z,5.72
2024-01-06T13:45:33.652Z,6.25
2024-01-06T13:50:55.611Z,5.45
2024-01-06T13:56:17.374Z,6.80
2024-01-06T14:01:39.641Z,7.13
2024-01-06T14:07:04.936Z,6.80
2024-01-06T14:12:27.047Z,6.80
2024-01-06T14:17:49.005Z,5.85
2024-01-06T14:23:10.778Z,6.82
2024-01-06T14:28:32.648Z,6.95
2024-01-06T14:33:56.075Z,9.43
2024-01-06T14:39:20.201Z,9.27
2024-01-06T14:44:42.201Z,8.75
2024-01-06T14:50:04.423Z,7.80
2024-01-06T14:55:26.199Z,7.18
2024-01-06T15:00:48.053Z,5.97
2024-01-06T15:06:10.855Z,5.95
2024-01-06T15:11:32.621Z,6.53
2024-01-06T15:16:54.347Z,5.22
2024-01-06T15:22:16.254Z,4.50
2024-01-06T15:27:38.051Z,3.50
2024-01-06T15:32:59.886Z,5.30
2024-01-06T15:38:21.712Z,4.15
2024-01-06T15:43:43.524Z,4.75
2024-01-06T15:49:05.712Z,6.68
2024-01-06T15:54:27.868Z,3.90
2024-01-06T15:59:49.594Z,3.80
2024-01-06T16:05:11.554Z,4.68
2024-01-06T16:10:33.444Z,5.30
2024-01-06T16:15:55.563Z,5.03
2024-01-06T16:21:22.660Z,4.95
2024-01-06T16:26:46.138Z,5.63
2024-01-06T16:32:08.377Z,4.10
2024-01-06T16:37:30.332Z,5.07
2024-01-06T16:42:53.273Z,5.68
2024-01-06T16:48:15.176Z,7.07
2024-01-06T16:53:37.023Z,4.72
2024-01-06T16:58:58.880Z,7.18
2024-01-06T17:04:21.124Z,5.60
2024-01-06T17:09:43.240Z,7.43
2024-01-06T17:15:05.347Z,10.18
2024-01-06T17:20:27.248Z,9.20
2024-01-06T17:25:49.000Z,9.00
2024-01-06T17:31:10.859Z,7.97
2024-01-06T17:36:32.727Z,7.55
2024-01-06T17:41:59.742Z,7.22
2024-01-06T17:47:22.383Z,9.25
2024-01-06T17:52:44.151Z,7.57
2024-01-06T17:58:05.952Z,6.32
2024-01-06T18:03:27.849Z,8.07
2024-01-06T18:08:49.650Z,5.75
2024-01-06T18:14:11.400Z,7.07
2024-01-06T18:19:33.264Z,6.75
2024-01-06T18:24:55.095Z,6.32
2024-01-06T18:30:16.924Z,5.65
2024-01-06T18:35:38.801Z,6.90
2024-01-06T18:41:00.601Z,9.40
2024-01-06T18:46:22.400Z,9.57
2024-01-06T18:51:44.260Z,9.57
2024-01-06T18:57:06.106Z,12.07
2024-01-06T19:02:27.858Z,12.82
2024-01-06T19:07:49.662Z,13.43
2024-01-06T19:13:11.483Z,12.45
2024-01-06T19:18:33.374Z,14.43
2024-01-06T19:23:55.156Z,14.68
2024-01-06T19:29:16.913Z,19.48
2024-01-06T19:34:39.164Z,19.13
2024-01-06T19:40:01.360Z,15.68
2024-01-06T19:45:23.125Z,16.50
2024-01-06T19:50:44.921Z,18.02
2024-01-06T19:56:13.341Z,18.85
2024-01-06T20:01:35.272Z,22.33
2024-01-06T20:06:57.152Z,15.60
2024-01-06T20:12:19.023Z,16.10
2024-01-06T20:17:40.827Z,14.73
2024-01-06T20:23:02.585Z,16.20
2024-01-06T20:28:24.364Z,17.15
2024-01-06T20:33:46.266Z,14.50
2024-01-06T20:39:08.443Z,14.23
2024-01-06T20:44:30.204Z,15.35
2024-01-06T20:49:51.974Z,12.43
2024-01-06T20:55:13.813Z,16.65
2024-01-06T21:00:35.666Z,12.32
2024-01-06T21:05:57.444Z,15.90
2024-01-06T21:11:19.158Z,14.02
2024-01-06T21:16:41.531Z,13.23
2024-01-06T21:22:03.473Z,14.25
2024-01-06T21:27:25.267Z,13.32
2024-01-06T21:32:47.306Z,12.43
2024-01-06T21:38:09.183Z,13.15
2024-01-06T21:43:30.928Z,16.33
2024-01-06T21:48:52.735Z,14.65
2024-01-06T21:54:14.572Z,14.63
2024-01-06T21:59:37.183Z,16.88
2024-01-06T22:04:58.944Z,18.02
2024-01-06T22:10:20.690Z,17.60
2024-01-06T22:15:42.502Z,18.15
2024-01-06T22:21:04.603Z,18.08
2024-01-06T22:26:26.347Z,21.30
2024-01-06T22:31:48.197Z,22.63
2024-01-06T22:37:10.099Z,21.42
2024-01-06T22:42:32.098Z,25.60
2024-01-06T22:47:53.999Z,24.35
2024-01-06T22:53:15.740Z,24.67
2024-01-06T22:58:37.900Z,23.75
2024-01-06T23:03:59.851Z,22.35
2024-01-06T23:09:21.678Z,23.98
2024-01-06T23:14:43.459Z,21.50
2024-01-06T23:20:05.679Z,25.00
2024-01-06T23:25:27.521Z,24.17
2024-01-06T23:30:49.442Z,21.80
2024-01-06T23:36:11.240Z,23.15
2024-01-06T23:41:32.948Z,22.40
2024-01-06T23:46:54.936Z,21.67
2024-01-06T23:52:16.700Z,21.63
2024-01-06T23:57:38.489Z,20.73
